createdAt,value
2023-03-06T00:00:33.251Z,78.02
2023-03-06T00:02:59.982Z,78.04
2023-03-06T00:05:27.302Z,77.99
2023-03-06T00:07:54.338Z,77.87
2023-03-06T00:10:24.540Z,78.10
2023-03-06T00:12:52.914Z,77.99
2023-03-06T00:15:20.922Z,78.07
2023-03-06T00:17:47.956Z,78.11
2023-03-06T00:20:15.279Z,77.98
2023-03-06T00:22:42.080Z,78.08
2023-03-06T00:25:13.668Z,78.05
2023-03-06T00:27:40.572Z,78.11
2023-03-06T00:30:08.414Z,78.09
2023-03-06T00:32:35.193Z,78.16
2023-03-06T00:35:01.997Z,78.19
2023-03-06T00:37:28.726Z,78.20
2023-03-06T00:39:55.481Z,78.27
2023-03-06T00:42:22.227Z,78.41
2023-03-06T00:44:49.195Z,78.46
2023-03-06T00:47:17.386Z,78.54
2023-03-06T00:49:45.310Z,78.52
2023-03-06T00:52:13.346Z,78.59
2023-03-06T00:54:40.986Z,78.81
2023-03-06T00:57:08.433Z,78.85
2023-03-06T00:59:35.718Z,78.82
2023-03-06T01:02:03.228Z,78.92
2023-03-06T01:04:30.484Z,79.00
2023-03-06T01:06:57.360Z,79.17
2023-03-06T01:09:24.516Z,79.18
2023-03-06T01:11:51.188Z,79.29
2023-03-06T01:15:17.895Z,79.29
2023-03-06T01:18:44.336Z,79.22
2023-03-06T01:21:11.395Z,79.33
2023-03-06T01:23:38.616Z,79.32
2023-03-06T01:26:06.393Z,79.41
2023-03-06T01:28:35.287Z,79.45
2023-03-06T01:31:02.152Z,79.46
2023-03-06T01:33:28.788Z,79.44
2023-03-06T01:35:55.878Z,79.62
2023-03-06T01:38:22.554Z,79.67
2023-03-06T01:40:49.227Z,79.60
2023-03-06T01:43:28.191Z,79.69
2023-03-06T01:46:35.065Z,79.58
2023-03-06T01:49:31.243Z,79.83
2023-03-06T01:52:14.670Z,79.73
2023-03-06T01:54:47.639Z,79.89
2023-03-06T01:57:19.915Z,80.17
2023-03-06T01:59:51.799Z,79.91
2023-03-06T02:02:19.069Z,80.21
2023-03-06T02:04:47.199Z,80.25
2023-03-06T02:07:18.628Z,80.40
2023-03-06T02:09:45.391Z,80.41
2023-03-06T02:12:16.540Z,80.62
2023-03-06T02:14:44.408Z,80.68
2023-03-06T02:17:13.400Z,80.66
2023-03-06T02:19:58.196Z,80.83
2023-03-06T02:22:29.430Z,80.70
2023-03-06T02:25:32.979Z,80.75
2023-03-06T02:28:00.050Z,80.85
2023-03-06T02:30:28.675Z,80.72
2023-03-06T02:32:55.846Z,80.89
2023-03-06T02:35:25.946Z,80.82
2023-03-06T02:37:53.809Z,80.91
2023-03-06T02:40:23.299Z,80.92
2023-03-06T02:42:52.703Z,80.87
2023-03-06T02:45:30.254Z,80.88
2023-03-06T02:47:56.995Z,80.89
2023-03-06T02:50:23.659Z,80.98
2023-03-06T02:52:50.668Z,81.13
2023-03-06T02:55:17.585Z,81.07
2023-03-06T02:57:44.416Z,81.27
2023-03-06T03:00:12.406Z,81.43
2023-03-06T03:02:39.194Z,81.44
2023-03-06T03:05:06.651Z,81.51
2023-03-06T03:07:33.564Z,81.70
2023-03-06T03:10:00.352Z,81.69
2023-03-06T03:12:28.787Z,81.60
2023-03-06T03:14:56.952Z,81.85
2023-03-06T03:17:24.878Z,82.07
2023-03-06T03:19:51.668Z,82.02
2023-03-06T03:22:19.054Z,82.05
2023-03-06T03:24:46.474Z,82.20
2023-03-06T03:27:13.697Z,82.32
2023-03-06T03:29:41.649Z,82.22
2023-03-06T03:32:09.201Z,82.34
2023-03-06T03:34:36.181Z,82.63
2023-03-06T03:37:03.015Z,82.60
2023-03-06T03:39:29.821Z,82.72
2023-03-06T03:41:56.508Z,82.70
2023-03-06T03:44:23.349Z,82.89
2023-03-06T03:46:50.180Z,82.93
2023-03-06T03:49:17.396Z,82.84
2023-03-06T03:51:44.296Z,83.00
2023-03-06T03:54:11.137Z,83.08
2023-03-06T03:56:40.363Z,83.18
2023-03-06T03:59:07.140Z,83.35
2023-03-06T04:01:33.987Z,83.16
2023-03-06T04:04:00.833Z,83.14
2023-03-06T04:06:27.874Z,83.15
2023-03-06T04:08:55.083Z,83.21
2023-03-06T04:11:21.728Z,83.35
2023-03-06T04:13:48.594Z,83.16
2023-03-06T04:16:15.378Z,83.37
2023-03-06T04:18:42.137Z,83.45
2023-03-06T04:21:08.950Z,83.57
2023-03-06T04:23:35.904Z,83.47
2023-03-06T04:26:03.080Z,83.43
2023-03-06T04:28:29.804Z,83.56
2023-03-06T04:30:56.673Z,83.59
2023-03-06T04:33:23.521Z,83.62
2023-03-06T04:35:50.794Z,83.55
2023-03-06T04:38:17.675Z,83.72
2023-03-06T04:40:45.023Z,83.75
2023-03-06T04:43:13.740Z,83.91
2023-03-06T04:45:41.398Z,83.88
2023-03-06T04:48:08.337Z,84.01
2023-03-06T04:50:35.521Z,84.02
2023-03-06T04:53:03.581Z,84.05
2023-03-06T04:55:30.947Z,84.11
2023-03-06T04:57:59.044Z,84.00
2023-03-06T05:00:30.717Z,84.24
2023-03-06T05:02:59.222Z,84.32
2023-03-06T05:05:26.224Z,84.28
2023-03-06T05:07:53.994Z,84.40
2023-03-06T05:10:21.417Z,84.61
2023-03-06T05:12:48.374Z,84.69
2023-03-06T05:15:15.897Z,84.61
2023-03-06T05:17:43.158Z,84.64
2023-03-06T05:20:11.670Z,85.02
2023-03-06T05:22:38.843Z,84.78
2023-03-06T05:25:06.573Z,84.78
2023-03-06T05:27:33.905Z,84.78
2023-03-06T05:30:01.074Z,84.70
2023-03-06T05:32:28.039Z,84.67
2023-03-06T05:34:54.891Z,84.70
2023-03-06T05:37:23.246Z,84.77
2023-03-06T05:39:51.407Z,84.65
2023-03-06T05:42:18.548Z,84.82
2023-03-06T05:44:45.700Z,84.63
2023-03-06T05:47:13.073Z,84.55
2023-03-06T05:49:40.479Z,84.41
2023-03-06T05:52:08.292Z,84.38
2023-03-06T05:54:36.579Z,84.15
2023-03-06T05:57:04.984Z,84.05
2023-03-06T05:59:33.318Z,84.03
2023-03-06T06:02:01.353Z,83.68
2023-03-06T06:04:28.606Z,83.72
2023-03-06T06:06:58.313Z,83.52
2023-03-06T06:09:25.675Z,83.51
2023-03-06T06:11:58.674Z,83.29
2023-03-06T06:14:26.476Z,83.21
2023-03-06T06:16:53.833Z,82.95
2023-03-06T06:19:21.628Z,82.97
2023-03-06T06:21:50.645Z,82.81
2023-03-06T06:24:19.650Z,82.60
2023-03-06T06:26:47.353Z,82.59
2023-03-06T06:29:14.096Z,82.58
2023-03-06T06:31:41.183Z,82.89
2023-03-06T06:34:10.096Z,82.55
2023-03-06T06:36:37.219Z,82.60
2023-03-06T06:39:04.999Z,82.39
2023-03-06T06:41:55.215Z,82.57
2023-03-06T06:44:20.086Z,82.65
2023-03-06T06:49:34.617Z,82.70
2023-03-06T06:52:02.512Z,82.74
2023-03-06T06:54:29.228Z,82.88
2023-03-06T06:56:55.941Z,83.08
2023-03-06T06:59:23.969Z,83.10
2023-03-06T07:01:52.214Z,83.14
2023-03-06T07:04:19.851Z,83.32
2023-03-06T07:06:46.705Z,83.37
2023-03-06T07:09:14.070Z,83.44
2023-03-06T07:11:41.263Z,83.48
2023-03-06T07:14:08.466Z,83.61
2023-03-06T07:16:35.189Z,83.46
2023-03-06T07:19:02.050Z,83.61
2023-03-06T07:21:28.990Z,83.58
2023-03-06T07:23:57.593Z,83.65
2023-03-06T07:26:28.551Z,83.56
2023-03-06T07:28:58.827Z,83.71
2023-03-06T07:31:27.551Z,83.67
2023-03-06T07:33:55.212Z,83.43
2023-03-06T07:36:23.768Z,83.38
2023-03-06T07:38:50.414Z,83.21
2023-03-06T07:41:22.210Z,83.09
2023-03-06T07:43:50.197Z,82.93
2023-03-06T07:46:17.376Z,82.90
2023-03-06T07:48:44.855Z,82.82
2023-03-06T07:51:20.436Z,82.57
2023-03-06T07:53:48.120Z,82.55
2023-03-06T07:56:15.008Z,82.55
2023-03-06T07:58:44.362Z,82.40
2023-03-06T08:01:14.753Z,82.36
2023-03-06T08:03:42.012Z,82.26
2023-03-06T08:06:20.474Z,82.11
2023-03-06T08:08:48.963Z,82.06
2023-03-06T08:11:18.396Z,82.04
2023-03-06T08:13:45.438Z,81.84
2023-03-06T08:16:12.184Z,81.86
2023-03-06T08:18:42.815Z,81.73
2023-03-06T08:21:17.218Z,81.68
2023-03-06T08:23:45.023Z,81.59
2023-03-06T08:26:15.154Z,81.89
2023-03-06T08:28:42.704Z,81.39
2023-03-06T08:31:27.717Z,81.56
2023-03-06T08:33:56.993Z,81.52
2023-03-06T08:36:24.102Z,81.50
2023-03-06T08:38:51.057Z,81.37
2023-03-06T08:41:18.366Z,81.23
2023-03-06T08:43:45.660Z,81.32
2023-03-06T08:46:12.733Z,81.12
2023-03-06T08:48:39.868Z,81.33
2023-03-06T08:51:09.095Z,81.05
2023-03-06T08:53:43.160Z,80.93
2023-03-06T08:56:19.320Z,80.85
2023-03-06T08:58:46.887Z,80.73
2023-03-06T09:01:19.554Z,80.92
2023-03-06T09:03:49.030Z,80.77
2023-03-06T09:06:16.177Z,80.56
2023-03-06T09:08:44.512Z,80.63
2023-03-06T09:11:12.961Z,80.53
2023-03-06T09:13:39.929Z,80.55
2023-03-06T09:16:07.652Z,80.42
2023-03-06T09:18:34.536Z,80.20
2023-03-06T09:21:01.372Z,80.11
2023-03-06T09:23:28.156Z,80.08
2023-03-06T09:26:54.749Z,80.03
2023-03-06T09:29:22.087Z,79.79
2023-03-06T09:31:48.870Z,79.53
2023-03-06T09:34:15.724Z,79.56
2023-03-06T09:36:56.764Z,79.30
2023-03-06T09:39:25.506Z,79.35
2023-03-06T09:41:52.807Z,79.06
2023-03-06T09:44:23.089Z,79.01
2023-03-06T09:47:09.106Z,78.76
2023-03-06T09:50:18.728Z,78.70
2023-03-06T09:53:10.220Z,78.21
2023-03-06T09:55:38.935Z,78.14
2023-03-06T09:58:10.327Z,77.92
2023-03-06T10:00:45.821Z,77.76
2023-03-06T10:03:21.793Z,77.72
2023-03-06T10:05:59.921Z,77.62
2023-03-06T10:08:49.409Z,77.71
2023-03-06T10:11:23.897Z,77.43
2023-03-06T10:13:58.121Z,77.34
2023-03-06T10:16:30.703Z,77.42
2023-03-06T10:19:03.422Z,77.51
2023-03-06T10:22:01.270Z,77.38
2023-03-06T10:24:46.155Z,77.16
2023-03-06T10:27:29.473Z,77.16
2023-03-06T10:30:18.701Z,77.35
2023-03-06T10:33:16.900Z,77.17
2023-03-06T10:35:50.247Z,77.19
2023-03-06T10:38:24.458Z,77.29
2023-03-06T10:41:12.964Z,77.19
2023-03-06T10:43:45.154Z,77.14
2023-03-06T10:46:14.859Z,77.19
2023-03-06T10:48:42.727Z,77.17
2023-03-06T10:51:18.478Z,77.20
2023-03-06T10:54:00.627Z,77.06
2023-03-06T10:56:35.814Z,76.93
2023-03-06T10:59:25.330Z,77.14
2023-03-06T11:01:57.940Z,77.02
2023-03-06T11:04:29.336Z,77.03
2023-03-06T11:07:22.955Z,77.13
2023-03-06T11:09:58.739Z,77.28
2023-03-06T11:12:37.693Z,77.29
2023-03-06T11:15:08.063Z,77.28
2023-03-06T11:17:48.930Z,77.15
2023-03-06T11:20:19.565Z,77.25
2023-03-06T11:22:51.079Z,77.42
2023-03-06T11:25:21.104Z,77.35
2023-03-06T11:27:56.432Z,77.34
2023-03-06T11:30:39.278Z,77.53
2023-03-06T11:33:22.253Z,77.24
2023-03-06T11:36:02.757Z,77.41
2023-03-06T11:38:50.034Z,77.48
2023-03-06T11:41:45.722Z,77.26
2023-03-06T11:44:24.961Z,77.38
2023-03-06T11:47:03.331Z,77.38
2023-03-06T11:49:36.266Z,77.19
2023-03-06T11:52:10.634Z,77.15
2023-03-06T11:54:37.625Z,77.00
2023-03-06T11:57:20.442Z,76.89
2023-03-06T11:59:53.185Z,76.51
2023-03-06T12:02:40.902Z,76.39
2023-03-06T12:05:42.062Z,75.72
2023-03-06T12:08:31.577Z,75.16
2023-03-06T12:11:11.220Z,74.88
2023-03-06T12:16:29.247Z,74.25
2023-03-06T12:19:03.823Z,73.80
2023-03-06T12:22:11.590Z,73.49
2023-03-06T12:24:44.155Z,73.33
2023-03-06T12:27:31.039Z,72.86
2023-03-06T12:30:09.586Z,72.88
2023-03-06T12:33:02.325Z,72.77
2023-03-06T12:35:44.190Z,72.79
2023-03-06T12:38:27.010Z,72.86
2023-03-06T12:41:16.807Z,72.91
2023-03-06T12:44:07.184Z,72.92
2023-03-06T12:46:41.700Z,72.57
2023-03-06T12:49:31.408Z,72.68
2023-03-06T12:52:00.554Z,72.91
2023-03-06T12:54:33.715Z,72.89
2023-03-06T12:57:01.069Z,73.19
2023-03-06T12:59:48.801Z,73.01
2023-03-06T13:02:36.009Z,73.19
2023-03-06T13:05:30.046Z,73.31
2023-03-06T13:08:24.832Z,73.60
2023-03-06T13:11:18.872Z,73.70
2023-03-06T13:13:47.791Z,73.92
2023-03-06T13:16:26.136Z,73.78
2023-03-06T13:18:58.905Z,73.79
2023-03-06T13:21:54.716Z,73.80
2023-03-06T13:24:27.466Z,73.92
2023-03-06T13:27:01.271Z,73.96
2023-03-06T13:29:37.295Z,74.19
2023-03-06T13:32:04.110Z,74.13
2023-03-06T13:34:43.617Z,74.06
2023-03-06T13:37:27.997Z,74.13
2023-03-06T13:39:58.565Z,74.22
2023-03-06T13:42:36.240Z,74.13
2023-03-06T13:45:13.353Z,74.13
2023-03-06T13:48:19.448Z,74.19
2023-03-06T13:50:49.924Z,74.16
2023-03-06T13:53:35.374Z,74.48
2023-03-06T13:56:40.488Z,74.44
2023-03-06T13:59:52.367Z,74.30
2023-03-06T14:02:58.107Z,73.93
2023-03-06T14:05:34.799Z,74.31
2023-03-06T14:08:23.871Z,74.32
2023-03-06T14:11:04.935Z,74.31
2023-03-06T14:13:47.847Z,74.27
2023-03-06T14:16:22.324Z,74.25
2023-03-06T14:18:52.190Z,74.37
2023-03-06T14:21:31.099Z,74.10
2023-03-06T14:24:00.655Z,74.04
2023-03-06T14:26:31.511Z,74.44
2023-03-06T14:29:00.743Z,74.47
2023-03-06T14:31:34.552Z,74.19
2023-03-06T14:34:05.292Z,74.14
2023-03-06T14:36:36.681Z,74.31
2023-03-06T14:39:10.833Z,74.13
2023-03-06T14:41:39.078Z,74.14
2023-03-06T14:44:22.147Z,74.19
2023-03-06T14:46:57.060Z,74.23
2023-03-06T14:49:27.376Z,74.31
2023-03-06T14:51:56.507Z,74.36
2023-03-06T14:54:30.090Z,74.45
2023-03-06T14:57:13.304Z,74.31
2023-03-06T14:59:44.091Z,74.61
2023-03-06T15:02:18.922Z,74.54
2023-03-06T15:04:51.005Z,74.72
2023-03-06T15:07:22.130Z,74.85
2023-03-06T15:09:54.096Z,74.90
2023-03-06T15:12:20.919Z,74.89
2023-03-06T15:15:31.464Z,74.82
2023-03-06T15:18:04.790Z,74.93
2023-03-06T15:20:56.208Z,75.15
2023-03-06T15:23:40.439Z,75.12
2023-03-06T15:26:21.846Z,75.26
2023-03-06T15:29:23.451Z,75.13
2023-03-06T15:31:52.024Z,75.40
2023-03-06T15:34:26.270Z,75.09
2023-03-06T15:36:56.048Z,75.27
2023-03-06T15:39:32.176Z,75.25
2023-03-06T15:42:26.382Z,75.02
2023-03-06T15:44:55.372Z,75.24
2023-03-06T15:47:22.714Z,75.13
2023-03-06T15:49:52.513Z,75.04
2023-03-06T15:52:23.184Z,75.34
2023-03-06T15:54:50.317Z,75.28
2023-03-06T15:57:27.304Z,75.38
2023-03-06T15:59:56.128Z,75.18
2023-03-06T16:02:24.276Z,75.36
2023-03-06T16:04:52.671Z,75.44
2023-03-06T16:07:20.707Z,75.43
2023-03-06T16:09:47.498Z,75.34
2023-03-06T16:12:19.883Z,75.25
2023-03-06T16:14:48.126Z,75.25
2023-03-06T16:17:15.350Z,75.26
2023-03-06T16:19:42.305Z,75.68
2023-03-06T16:22:09.432Z,75.49
2023-03-06T16:24:37.278Z,75.59
2023-03-06T16:27:04.465Z,75.40
2023-03-06T16:29:31.320Z,75.45
2023-03-06T16:31:59.068Z,75.62
2023-03-06T16:34:26.431Z,75.53
2023-03-06T16:36:53.279Z,75.75
2023-03-06T16:39:22.750Z,75.77
2023-03-06T16:41:50.503Z,75.70
2023-03-06T16:44:17.666Z,75.65
2023-03-06T16:46:47.114Z,75.77
2023-03-06T16:49:25.524Z,75.83
2023-03-06T16:51:53.465Z,75.92
2023-03-06T16:54:21.907Z,75.81
2023-03-06T16:56:48.938Z,75.73
2023-03-06T16:59:15.775Z,75.82
2023-03-06T17:01:43.252Z,76.19
2023-03-06T17:04:11.181Z,76.08
2023-03-06T17:06:38.736Z,76.30
2023-03-06T17:09:05.602Z,76.30
2023-03-06T17:11:32.511Z,76.42
2023-03-06T17:13:59.671Z,76.51
2023-03-06T17:16:26.308Z,76.64
2023-03-06T17:18:54.852Z,76.85
2023-03-06T17:21:21.623Z,76.82
2023-03-06T17:23:48.392Z,77.07
2023-03-06T17:26:20.721Z,77.22
2023-03-06T17:28:47.755Z,77.14
2023-03-06T17:31:19.684Z,77.25
2023-03-06T17:33:47.861Z,77.26
2023-03-06T17:36:15.452Z,77.51
2023-03-06T17:38:42.784Z,77.33
2023-03-06T17:41:11.196Z,77.45
2023-03-06T17:43:39.615Z,77.29
2023-03-06T17:46:11.422Z,77.08
2023-03-06T17:48:39.269Z,77.07
2023-03-06T17:51:06.699Z,77.03
2023-03-06T17:53:33.880Z,77.40
2023-03-06T17:56:06.868Z,77.24
2023-03-06T17:58:34.167Z,77.48
2023-03-06T18:01:13.973Z,77.42
2023-03-06T18:03:44.703Z,77.34
2023-03-06T18:06:12.941Z,77.40
2023-03-06T18:08:41.294Z,77.68
2023-03-06T18:11:09.906Z,77.66
2023-03-06T18:13:39.512Z,77.57
2023-03-06T18:16:07.981Z,77.75
2023-03-06T18:18:35.412Z,77.71
2023-03-06T18:21:12.581Z,77.71
2023-03-06T18:23:40.919Z,77.62
2023-03-06T18:26:14.146Z,77.88
2023-03-06T18:28:44.653Z,78.03
2023-03-06T18:31:24.878Z,78.06
2023-03-06T18:34:03.232Z,77.92
2023-03-06T18:36:32.541Z,77.98
2023-03-06T18:39:04.116Z,77.95
2023-03-06T18:41:31.283Z,78.12
2023-03-06T18:44:00.295Z,78.06
2023-03-06T18:46:34.738Z,78.01
2023-03-06T18:49:02.270Z,78.03
2023-03-06T18:51:29.322Z,78.17
2023-03-06T18:54:00.620Z,78.08
2023-03-06T18:56:33.377Z,78.30
2023-03-06T18:59:05.874Z,78.14
2023-03-06T19:01:33.438Z,78.12
2023-03-06T19:04:02.026Z,78.18
2023-03-06T19:06:30.134Z,78.07
2023-03-06T19:09:02.150Z,78.13
2023-03-06T19:11:29.464Z,78.06
2023-03-06T19:13:56.458Z,77.69
2023-03-06T19:16:26.378Z,77.58
2023-03-06T19:18:55.789Z,77.25
2023-03-06T19:21:24.676Z,77.04
2023-03-06T19:23:52.053Z,76.90
2023-03-06T19:26:19.267Z,76.73
2023-03-06T19:28:47.287Z,76.76
2023-03-06T19:31:25.282Z,76.51
2023-03-06T21:08:24.389Z,70.96
2023-03-06T21:10:51.544Z,70.76
2023-03-06T21:13:18.527Z,70.72
2023-03-06T21:15:48.029Z,70.73
2023-03-06T21:18:15.122Z,70.67
2023-03-06T21:20:43.388Z,70.42
2023-03-06T21:23:10.702Z,70.39
2023-03-06T21:25:37.493Z,70.55
2023-03-06T21:28:04.303Z,70.33
2023-03-06T21:30:34.726Z,70.26
2023-03-06T21:33:01.409Z,70.33
2023-03-06T21:35:29.365Z,70.22
2023-03-06T21:37:56.404Z,70.46
2023-03-06T21:40:23.100Z,70.30
2023-03-06T21:42:49.742Z,70.40
2023-03-06T21:45:16.737Z,70.54
2023-03-06T21:47:43.408Z,70.42
2023-03-06T21:50:11.763Z,70.63
2023-03-06T21:52:38.671Z,70.47
2023-03-06T21:55:06.107Z,70.44
2023-03-06T21:57:35.184Z,70.63
2023-03-06T22:00:02.337Z,70.39
2023-03-06T22:02:29.612Z,70.51
2023-03-06T22:04:56.428Z,70.42
2023-03-06T22:07:23.288Z,70.30
2023-03-06T22:09:53.651Z,70.43
2023-03-06T22:12:21.118Z,70.30
2023-03-06T22:14:48.232Z,70.12
2023-03-06T22:17:14.947Z,69.97
2023-03-06T22:19:41.744Z,69.73
2023-03-06T22:22:10.694Z,69.67
2023-03-06T22:24:37.504Z,69.50
2023-03-06T22:27:04.410Z,69.42
2023-03-06T22:29:31.311Z,69.32
2023-03-06T22:31:58.034Z,69.34
2023-03-06T22:34:26.637Z,69.18
2023-03-06T22:36:53.518Z,69.17
2023-03-06T22:39:20.251Z,69.31
2023-03-06T22:41:47.252Z,69.14
2023-03-06T22:44:19.527Z,69.01
2023-03-06T22:46:46.712Z,69.00
2023-03-06T22:49:14.367Z,68.77
2023-03-06T22:51:42.459Z,69.04
2023-03-06T22:54:09.978Z,68.81
2023-03-06T22:56:36.823Z,68.82
2023-03-06T22:59:04.483Z,68.79
2023-03-06T23:01:33.549Z,68.71
2023-03-06T23:04:03.267Z,68.79
2023-03-06T23:06:37.713Z,68.74
2023-03-06T23:09:22.583Z,68.74
2023-03-06T23:11:50.178Z,68.75
2023-03-06T23:14:18.258Z,68.79
2023-03-06T23:16:45.500Z,68.68
2023-03-06T23:19:12.733Z,68.63
2023-03-06T23:21:39.507Z,68.45
2023-03-06T23:24:07.019Z,68.47
2023-03-06T23:26:35.019Z,68.50
2023-03-06T23:29:02.465Z,68.62
2023-03-06T23:31:30.604Z,68.46
2023-03-06T23:34:02.711Z,68.60
2023-03-06T23:36:30.500Z,68.55
2023-03-06T23:38:57.812Z,68.52
2023-03-06T23:41:25.350Z,68.40
2023-03-06T23:43:55.129Z,68.20
2023-03-06T23:46:22.385Z,68.20
2023-03-06T23:48:49.348Z,68.08
2023-03-06T23:51:19.203Z,68.10
2023-03-06T23:53:47.130Z,68.00
2023-03-06T23:56:14.376Z,67.96
2023-03-06T23:58:41.303Z,68.10
